createdAt,value
2022-11-12T00:00:54.349Z,35.00
2022-11-12T00:04:17.632Z,38.25
2022-11-12T00:07:41.463Z,37.00
2022-11-12T00:11:05.006Z,36.50
2022-11-12T00:14:27.561Z,36.50
2022-11-12T00:17:50.983Z,31.25
2022-11-12T00:21:13.237Z,36.00
2022-11-12T00:24:36.593Z,38.25
2022-11-12T00:28:03.485Z,38.75
2022-11-12T00:31:25.412Z,34.75
2022-11-12T00:34:49.712Z,31.25
2022-11-12T00:38:11.854Z,32.25
2022-11-12T00:41:34.153Z,31.00
2022-11-12T00:44:55.923Z,30.75
2022-11-12T00:48:18.520Z,30.75
2022-11-12T00:51:42.849Z,28.75
2022-11-12T00:55:05.764Z,32.25
2022-11-12T00:58:29.942Z,32.25
2022-11-12T01:01:55.450Z,34.00
2022-11-12T01:05:17.686Z,29.00
2022-11-12T01:08:41.999Z,28.75
2022-11-12T01:12:04.101Z,30.50
2022-11-12T01:15:26.435Z,28.00
2022-11-12T01:18:49.571Z,27.00
2022-11-12T01:22:13.115Z,31.00
2022-11-12T01:25:38.939Z,32.75
2022-11-12T01:29:01.420Z,28.25
2022-11-12T01:32:23.319Z,26.50
2022-11-12T01:35:45.396Z,29.75
2022-11-12T01:39:08.944Z,29.00
2022-11-12T01:42:34.244Z,30.75
2022-11-12T01:45:56.858Z,26.00
2022-11-12T01:49:23.960Z,29.25
2022-11-12T01:52:50.440Z,29.25
2022-11-12T01:56:13.845Z,29.25
2022-11-12T01:59:42.496Z,30.75
2022-11-12T02:03:11.618Z,29.00
2022-11-12T02:06:34.251Z,28.25
2022-11-12T02:09:56.792Z,31.00
2022-11-12T02:13:51.485Z,26.75
2022-11-12T02:17:15.270Z,29.00
2022-11-12T02:20:38.211Z,29.00
2022-11-12T02:24:05.206Z,29.00
2022-11-12T02:27:27.207Z,28.00
2022-11-12T02:30:51.112Z,27.25
2022-11-12T02:34:12.940Z,27.50
2022-11-12T02:37:35.151Z,30.75
2022-11-12T02:40:58.373Z,29.00
2022-11-12T02:44:20.965Z,30.00
2022-11-12T02:47:43.196Z,34.00
2022-11-12T02:51:06.107Z,29.25
2022-11-12T02:54:27.939Z,29.00
2022-11-12T02:57:51.710Z,31.00
2022-11-12T03:01:13.615Z,29.00
2022-11-12T03:04:35.740Z,29.50
2022-11-12T03:08:00.248Z,29.00
2022-11-12T03:11:22.734Z,28.00
2022-11-12T03:14:46.020Z,28.50
2022-11-12T03:18:08.295Z,29.00
2022-11-12T03:21:30.398Z,28.50
2022-11-12T03:24:52.852Z,28.75
2022-11-12T03:28:16.305Z,27.50
2022-11-12T03:31:40.309Z,27.75
2022-11-12T03:35:02.111Z,27.00
2022-11-12T03:38:25.767Z,27.75
2022-11-12T03:41:48.123Z,27.25
2022-11-12T03:45:12.664Z,24.00
2022-11-12T03:48:35.871Z,27.50
2022-11-12T03:51:57.932Z,25.25
2022-11-12T03:55:22.764Z,25.25
2022-11-12T03:58:45.110Z,26.00
2022-11-12T04:02:07.052Z,26.25
2022-11-12T04:05:48.479Z,24.00
2022-11-12T04:09:10.537Z,27.00
2022-11-12T04:13:04.409Z,24.00
2022-11-12T04:16:43.669Z,23.00
2022-11-12T04:20:38.832Z,25.75
2022-11-12T04:24:02.219Z,26.50
2022-11-12T04:27:24.905Z,24.00
2022-11-12T04:30:47.062Z,25.25
2022-11-12T04:34:27.418Z,26.00
2022-11-12T04:37:49.695Z,25.00
2022-11-12T04:41:30.757Z,24.00
2022-11-12T04:45:01.552Z,26.00
2022-11-12T04:48:25.499Z,26.00
2022-11-12T04:52:06.121Z,28.00
2022-11-12T04:55:28.543Z,26.00
2022-11-12T04:58:51.688Z,45.00
2022-11-12T05:02:14.069Z,40.00
2022-11-12T05:05:36.513Z,35.00
2022-11-12T05:08:59.067Z,42.00
2022-11-12T05:12:21.175Z,34.00
2022-11-12T05:15:46.137Z,45.00
2022-11-12T05:19:08.329Z,38.00
2022-11-12T05:22:43.135Z,37.25
2022-11-12T05:26:10.218Z,28.25
2022-11-12T05:29:32.866Z,31.50
2022-11-12T05:32:56.248Z,30.75
2022-11-12T05:36:18.619Z,29.50
2022-11-12T05:39:40.497Z,29.00
2022-11-12T05:43:02.852Z,34.75
2022-11-12T05:46:25.058Z,31.75
2022-11-12T05:49:49.042Z,30.50
2022-11-12T05:53:11.180Z,30.25
2022-11-12T05:56:33.832Z,29.00
2022-11-12T05:59:55.839Z,30.75
2022-11-12T06:03:18.053Z,32.50
2022-11-12T06:06:41.907Z,35.25
2022-11-12T06:10:04.788Z,34.00
2022-11-12T06:13:27.555Z,35.00
2022-11-12T06:16:50.105Z,34.75
2022-11-12T06:20:13.543Z,34.00
2022-11-12T06:23:39.052Z,35.25
2022-11-12T06:27:01.305Z,105.00
2022-11-12T06:30:25.958Z,65.33
2022-11-12T06:33:49.102Z,54.00
2022-11-12T06:37:11.320Z,49.50
2022-11-12T06:40:35.180Z,31.75
2022-11-12T06:43:57.754Z,26.00
2022-11-12T06:47:19.891Z,25.50
2022-11-12T06:50:42.485Z,27.00
2022-11-12T06:54:05.006Z,26.00
2022-11-12T06:57:28.721Z,25.75
2022-11-12T07:00:50.495Z,26.25
2022-11-12T07:04:12.968Z,26.00
2022-11-12T07:07:34.702Z,24.25
2022-11-12T07:10:58.186Z,26.50
2022-11-12T07:14:23.448Z,26.00
2022-11-12T07:17:46.859Z,24.00
2022-11-12T07:21:11.790Z,25.50
2022-11-12T07:24:34.270Z,32.25
2022-11-12T07:27:56.334Z,37.00
2022-11-12T07:31:22.057Z,33.50
2022-11-12T07:34:43.955Z,29.50
2022-11-12T07:38:06.135Z,29.00
2022-11-12T07:41:29.565Z,26.75
2022-11-12T07:44:52.185Z,29.00
2022-11-12T07:48:15.585Z,32.00
2022-11-12T07:51:37.562Z,27.75
2022-11-12T07:54:59.418Z,28.75
2022-11-12T07:58:21.489Z,34.00
2022-11-12T08:01:43.404Z,31.75
2022-11-12T08:05:14.435Z,32.50
2022-11-12T08:08:39.485Z,38.50
2022-11-12T08:12:01.594Z,59.00
2022-11-12T08:15:24.579Z,26.50
2022-11-12T08:18:48.061Z,27.50
2022-11-12T08:22:11.117Z,32.00
2022-11-12T08:25:33.345Z,26.00
2022-11-12T08:28:55.110Z,47.75
2022-11-12T08:32:17.203Z,39.00
2022-11-12T08:35:39.268Z,28.75
2022-11-12T08:39:02.821Z,32.25
2022-11-12T08:42:25.127Z,34.25
2022-11-12T08:45:48.641Z,39.00
2022-11-12T08:49:10.835Z,33.25
2022-11-12T08:52:33.016Z,34.25
2022-11-12T08:55:57.112Z,50.75
2022-11-12T08:59:19.574Z,40.00
2022-11-12T09:02:41.577Z,31.75
2022-11-12T09:06:05.599Z,30.25
2022-11-12T09:09:27.690Z,30.75
2022-11-12T09:12:53.870Z,34.25
2022-11-12T09:16:15.643Z,27.25
2022-11-12T09:19:42.674Z,33.25
2022-11-12T09:23:08.012Z,37.50
2022-11-12T09:26:30.371Z,38.75
2022-11-12T09:29:53.699Z,22.25
2022-11-12T09:33:16.899Z,34.00
2022-11-12T09:36:40.068Z,36.50
2022-11-12T09:40:02.527Z,25.25
2022-11-12T09:43:28.988Z,29.25
2022-11-12T09:47:00.062Z,26.00
2022-11-12T09:50:26.222Z,26.50
2022-11-12T09:53:55.187Z,49.25
2022-11-12T09:57:17.538Z,27.00
2022-11-12T10:00:45.066Z,32.25
2022-11-12T10:04:38.473Z,42.75
2022-11-12T10:08:34.174Z,32.50
2022-11-12T10:12:31.299Z,92.67
2022-11-12T10:16:26.692Z,37.00
2022-11-12T10:20:02.433Z,32.25
2022-11-12T10:23:30.971Z,31.25
2022-11-12T10:26:54.509Z,36.00
2022-11-12T10:30:19.355Z,25.25
2022-11-12T10:33:41.250Z,13.50
2022-11-12T10:37:08.393Z,15.00
2022-11-12T10:40:34.742Z,11.75
2022-11-12T10:44:01.787Z,14.25
2022-11-12T10:47:29.700Z,15.75
2022-11-12T10:50:52.283Z,18.25
2022-11-12T10:54:31.014Z,15.75
2022-11-12T10:58:19.741Z,15.50
2022-11-12T11:01:45.722Z,14.25
2022-11-12T11:05:30.279Z,18.25
2022-11-12T11:08:53.922Z,14.75
2022-11-12T11:12:26.638Z,20.25
2022-11-12T11:16:01.403Z,18.25
2022-11-12T11:19:26.886Z,10.00
2022-11-12T11:22:55.545Z,21.50
2022-11-12T11:26:43.673Z,17.00
2022-11-12T11:30:11.683Z,16.25
2022-11-12T11:33:47.229Z,15.00
2022-11-12T11:37:24.799Z,19.25
2022-11-12T11:40:56.477Z,16.00
2022-11-12T11:44:27.823Z,15.50
2022-11-12T11:48:01.749Z,20.50
2022-11-12T11:51:50.133Z,18.75
2022-11-12T11:55:38.125Z,20.00
2022-11-12T11:59:15.271Z,20.00
2022-11-12T12:03:01.119Z,15.75
2022-11-12T12:06:27.505Z,14.25
2022-11-12T12:09:58.712Z,19.50
2022-11-12T12:13:31.207Z,18.00
2022-11-12T12:17:03.680Z,23.25
2022-11-12T12:20:33.910Z,18.00
2022-11-12T12:24:01.199Z,19.25
2022-11-12T12:27:27.222Z,15.25
2022-11-12T12:30:56.102Z,9.00
2022-11-12T12:34:25.134Z,18.00
2022-11-12T12:37:56.673Z,20.00
2022-11-12T12:41:27.881Z,6.75
2022-11-12T12:45:04.908Z,15.25
2022-11-12T12:48:32.771Z,13.00
2022-11-12T12:51:56.097Z,12.50
2022-11-12T12:55:44.531Z,10.50
2022-11-12T12:59:20.790Z,10.00
2022-11-12T13:02:43.035Z,10.00
2022-11-12T13:06:09.028Z,14.00
2022-11-12T13:09:30.909Z,20.75
2022-11-12T13:13:05.722Z,12.00
2022-11-12T13:16:58.225Z,12.25
2022-11-12T13:20:38.423Z,17.50
2022-11-12T13:24:08.343Z,16.50
2022-11-12T13:28:01.207Z,19.25
2022-11-12T13:31:29.993Z,23.25
2022-11-12T13:34:52.370Z,21.75
2022-11-12T13:38:16.577Z,21.25
2022-11-12T13:41:56.737Z,22.50
2022-11-12T13:45:20.990Z,15.00
2022-11-12T13:48:47.952Z,20.00
2022-11-12T13:52:10.607Z,18.00
2022-11-12T13:55:32.951Z,17.50
2022-11-12T13:58:56.315Z,13.75
2022-11-12T14:02:23.913Z,19.75
2022-11-12T14:05:51.563Z,14.00
2022-11-12T14:09:44.802Z,18.75
2022-11-12T14:13:25.202Z,22.25
2022-11-12T14:17:20.900Z,17.75
2022-11-12T14:20:44.577Z,18.00
2022-11-12T14:24:13.568Z,25.00
2022-11-12T14:27:37.376Z,29.50
2022-11-12T14:31:00.646Z,24.75
2022-11-12T14:34:23.928Z,24.00
2022-11-12T14:37:52.901Z,17.25
2022-11-12T14:41:22.940Z,20.00
2022-11-12T14:44:45.434Z,11.25
2022-11-12T14:48:10.851Z,19.25
2022-11-12T14:51:39.358Z,14.50
2022-11-12T14:55:10.939Z,15.50
2022-11-12T14:58:35.927Z,14.00
2022-11-12T15:02:29.621Z,17.00
2022-11-12T15:05:57.376Z,17.00
2022-11-12T15:09:21.974Z,19.00
2022-11-12T15:12:44.512Z,13.25
2022-11-12T15:16:10.545Z,12.00
2022-11-12T15:19:34.105Z,13.75
2022-11-12T15:22:57.031Z,17.75
2022-11-12T15:26:26.182Z,21.00
2022-11-12T15:29:51.786Z,22.00
2022-11-12T15:33:22.435Z,22.50
2022-11-12T15:36:45.000Z,18.00
2022-11-12T15:40:14.220Z,18.75
2022-11-12T15:43:42.464Z,24.25
2022-11-12T15:47:05.917Z,27.25
2022-11-12T15:50:32.237Z,23.00
2022-11-12T15:53:54.605Z,23.00
2022-11-12T15:57:18.776Z,26.75
2022-11-12T16:00:41.846Z,24.00
2022-11-12T16:04:03.735Z,21.00
2022-11-12T16:07:27.553Z,22.50
2022-11-12T16:10:51.036Z,21.75
2022-11-12T16:14:15.562Z,22.00
2022-11-12T16:17:38.139Z,25.00
2022-11-12T16:21:00.662Z,31.25
2022-11-12T16:24:24.257Z,34.00
2022-11-12T16:27:50.202Z,40.00
2022-11-12T16:31:15.206Z,37.00
2022-11-12T16:34:38.786Z,42.00
2022-11-12T16:38:01.120Z,43.00
2022-11-12T16:41:25.162Z,44.25
2022-11-12T16:44:48.109Z,41.00
2022-11-12T16:48:15.542Z,42.75
2022-11-12T16:51:37.944Z,36.00
2022-11-12T16:55:04.541Z,39.50
2022-11-12T16:58:28.807Z,42.00
2022-11-12T17:01:53.203Z,50.00
2022-11-12T17:05:17.414Z,37.25
2022-11-12T17:08:40.078Z,35.25
2022-11-12T17:12:03.815Z,39.00
2022-11-12T17:15:28.278Z,38.00
2022-11-12T17:18:53.942Z,36.25
2022-11-12T17:22:16.343Z,34.50
2022-11-12T17:25:38.525Z,33.75
2022-11-12T17:29:07.654Z,28.50
2022-11-12T17:32:31.625Z,30.50
2022-11-12T17:35:54.137Z,28.25
2022-11-12T17:39:16.197Z,27.75
2022-11-12T17:42:38.938Z,26.00
2022-11-12T17:46:02.088Z,33.50
2022-11-12T17:49:25.761Z,28.75
2022-11-12T17:52:47.851Z,26.00
2022-11-12T17:56:12.310Z,27.50
2022-11-12T17:59:34.713Z,29.00
2022-11-12T18:02:57.058Z,31.25
2022-11-12T18:06:23.472Z,27.50
2022-11-12T18:09:47.934Z,31.25
2022-11-12T18:13:09.840Z,25.25
2022-11-12T18:16:38.189Z,33.25
2022-11-12T18:20:02.288Z,34.00
2022-11-12T18:23:26.827Z,36.00
2022-11-12T18:26:49.328Z,41.75
2022-11-12T18:30:17.946Z,39.00
2022-11-12T18:33:41.410Z,0.00
2022-11-12T18:37:03.962Z,53.67
2022-11-12T18:40:28.010Z,45.25
2022-11-12T18:43:50.982Z,67.00
2022-11-12T18:47:12.950Z,65.00
2022-11-12T18:50:38.032Z,60.67
2022-11-12T18:54:00.128Z,58.00
2022-11-12T18:57:25.583Z,55.67
2022-11-12T19:00:47.555Z,53.33
2022-11-12T19:04:12.965Z,51.25
2022-11-12T19:07:34.638Z,47.75
2022-11-12T19:11:04.247Z,62.00
2022-11-12T19:14:27.751Z,51.00
2022-11-12T19:17:53.249Z,49.00
2022-11-12T19:21:18.332Z,51.75
2022-11-12T19:24:40.930Z,49.75
2022-11-12T19:28:03.411Z,54.33
2022-11-12T19:31:28.130Z,56.33
2022-11-12T19:34:50.229Z,54.67
2022-11-12T19:38:12.671Z,59.00
2022-11-12T19:41:35.594Z,61.67
2022-11-12T19:44:58.451Z,53.00
2022-11-12T19:48:23.151Z,57.00
2022-11-12T19:51:45.587Z,56.00
2022-11-12T19:55:08.463Z,60.00
2022-11-12T19:58:31.788Z,68.67
2022-11-12T20:01:54.046Z,72.67
2022-11-12T20:05:19.281Z,67.67
2022-11-12T20:08:43.192Z,61.33
2022-11-12T20:12:09.119Z,65.33
2022-11-12T20:15:31.295Z,63.00
2022-11-12T20:18:54.918Z,57.67
2022-11-12T20:22:18.429Z,78.67
2022-11-12T20:25:41.243Z,79.67
2022-11-12T20:29:07.545Z,45.33
2022-11-12T20:32:29.989Z,60.33
2022-11-12T20:35:51.745Z,42.00
2022-11-12T20:39:15.428Z,55.33
2022-11-12T20:42:37.386Z,51.25
2022-11-12T20:46:00.026Z,45.00
2022-11-12T20:49:21.608Z,43.00
2022-11-12T20:52:44.065Z,43.50
2022-11-12T20:56:09.894Z,44.00
2022-11-12T20:59:34.078Z,41.75
2022-11-12T21:02:56.823Z,36.00
2022-11-12T21:06:21.137Z,35.50
2022-11-12T21:09:43.217Z,58.33
2022-11-12T21:13:07.123Z,54.33
2022-11-12T21:16:29.157Z,43.25
2022-11-12T21:19:51.544Z,44.25
2022-11-12T21:23:13.722Z,55.33
2022-11-12T21:26:36.222Z,51.67
2022-11-12T21:30:02.677Z,63.00
2022-11-12T21:33:25.267Z,74.67
2022-11-12T21:36:47.218Z,65.00
2022-11-12T21:40:10.918Z,52.50
2022-11-12T21:43:36.457Z,41.00
2022-11-12T21:47:01.292Z,49.25
2022-11-12T21:50:23.779Z,35.00
2022-11-12T21:53:46.128Z,40.50
2022-11-12T21:57:08.104Z,43.00
2022-11-12T22:00:46.856Z,67.33
2022-11-12T22:04:14.205Z,86.33
2022-11-12T22:07:40.852Z,60.00
2022-11-12T22:11:04.717Z,54.33
2022-11-12T22:14:28.609Z,44.25
2022-11-12T22:17:50.467Z,56.00
2022-11-12T22:21:16.470Z,39.50
2022-11-12T22:24:39.969Z,46.50
2022-11-12T22:28:02.840Z,40.25
2022-11-12T22:31:28.150Z,39.25
2022-11-12T22:34:50.522Z,41.00
2022-11-12T22:38:15.387Z,36.50
2022-11-12T22:41:39.719Z,35.25
2022-11-12T22:45:02.112Z,36.25
2022-11-12T22:48:25.069Z,43.50
2022-11-12T22:51:47.433Z,41.00
2022-11-12T22:55:12.262Z,38.00
2022-11-12T22:58:37.427Z,37.75
2022-11-12T23:01:59.507Z,38.00
2022-11-12T23:05:21.517Z,35.25
2022-11-12T23:08:45.066Z,34.50
2022-11-12T23:12:09.043Z,36.00
2022-11-12T23:15:31.917Z,31.50
2022-11-12T23:18:55.084Z,31.00
2022-11-12T23:22:18.656Z,35.00
2022-11-12T23:25:40.866Z,34.75
2022-11-12T23:29:06.640Z,32.00
2022-11-12T23:32:29.075Z,26.25
2022-11-12T23:35:51.435Z,29.25
2022-11-12T23:39:14.722Z,29.75
2022-11-12T23:42:37.462Z,28.00
2022-11-12T23:46:04.194Z,29.00
2022-11-12T23:49:26.899Z,26.75
2022-11-12T23:52:49.166Z,35.00
2022-11-12T23:56:14.424Z,27.75
2022-11-12T23:59:36.308Z,30.00
